sensor_id;sensor_type;location;lat;lon;timestamp;temperature;humidity
8715;DHT22;4394;51.208;8.904;2022-08-19T00:01:46;20.50;99.90
8715;DHT22;4394;51.208;8.904;2022-08-19T00:04:39;20.50;99.90
8715;DHT22;4394;51.208;8.904;2022-08-19T00:07:27;20.50;99.90
8715;DHT22;4394;51.208;8.904;2022-08-19T00:10:17;20.40;99.90
8715;DHT22;4394;51.208;8.904;2022-08-19T00:13:06;20.40;99.90
8715;DHT22;4394;51.208;8.904;2022-08-19T00:15:55;20.40;99.90
8715;DHT22;4394;51.208;8.904;2022-08-19T00:18:45;20.40;99.90
8715;DHT22;4394;51.208;8.904;2022-08-19T00:21:33;20.40;99.90
8715;DHT22;4394;51.208;8.904;2022-08-19T00:24:23;20.40;99.90
8715;DHT22;4394;51.208;8.904;2022-08-19T00:27:12;20.40;99.90
8715;DHT22;4394;51.208;8.904;2022-08-19T00:30:12;20.40;99.90
8715;DHT22;4394;51.208;8.904;2022-08-19T00:33:02;20.40;99.90
8715;DHT22;4394;51.208;8.904;2022-08-19T00:35:51;20.40;99.90
8715;DHT22;4394;51.208;8.904;2022-08-19T00:38:42;20.40;99.90
8715;DHT22;4394;51.208;8.904;2022-08-19T00:41:30;20.50;99.90
8715;DHT22;4394;51.208;8.904;2022-08-19T00:44:22;20.50;99.90
8715;DHT22;4394;51.208;8.904;2022-08-19T00:47:13;20.50;99.90
8715;DHT22;4394;51.208;8.904;2022-08-19T00:50:04;20.50;99.90
8715;DHT22;4394;51.208;8.904;2022-08-19T00:52:53;20.50;99.90
8715;DHT22;4394;51.208;8.904;2022-08-19T00:55:42;20.40;99.90
8715;DHT22;4394;51.208;8.904;2022-08-19T00:58:34;20.40;99.90
8715;DHT22;4394;51.208;8.904;2022-08-19T01:01:23;20.50;99.90
8715;DHT22;4394;51.208;8.904;2022-08-19T01:04:11;20.50;99.90
8715;DHT22;4394;51.208;8.904;2022-08-19T01:07:01;20.40;99.90
8715;DHT22;4394;51.208;8.904;2022-08-19T01:09:50;20.50;99.90
8715;DHT22;4394;51.208;8.904;2022-08-19T01:12:39;20.40;99.90
8715;DHT22;4394;51.208;8.904;2022-08-19T01:15:32;20.40;99.90
8715;DHT22;4394;51.208;8.904;2022-08-19T01:18:21;20.50;99.90
8715;DHT22;4394;51.208;8.904;2022-08-19T01:21:17;20.30;99.90
8715;DHT22;4394;51.208;8.904;2022-08-19T01:24:08;20.30;99.90
8715;DHT22;4394;51.208;8.904;2022-08-19T01:26:56;20.30;99.90
8715;DHT22;4394;51.208;8.904;2022-08-19T01:29:45;20.20;99.90
8715;DHT22;4394;51.208;8.904;2022-08-19T01:32:34;20.20;99.90
8715;DHT22;4394;51.208;8.904;2022-08-19T01:35:26;20.20;99.90
8715;DHT22;4394;51.208;8.904;2022-08-19T01:38:22;20.30;99.90
8715;DHT22;4394;51.208;8.904;2022-08-19T01:41:12;20.30;99.90
8715;DHT22;4394;51.208;8.904;2022-08-19T01:44:01;20.20;99.90
8715;DHT22;4394;51.208;8.904;2022-08-19T01:47:05;20.20;99.90
8715;DHT22;4394;51.208;8.904;2022-08-19T01:49:53;20.10;99.90
8715;DHT22;4394;51.208;8.904;2022-08-19T01:52:43;20.20;99.90
8715;DHT22;4394;51.208;8.904;2022-08-19T01:55:32;20.10;99.90
8715;DHT22;4394;51.208;8.904;2022-08-19T01:58:25;20.10;99.90
8715;DHT22;4394;51.208;8.904;2022-08-19T02:01:14;20.10;99.90
8715;DHT22;4394;51.208;8.904;2022-08-19T02:04:03;20.00;99.90
8715;DHT22;4394;51.208;8.904;2022-08-19T02:06:51;20.10;99.90
8715;DHT22;4394;51.208;8.904;2022-08-19T02:09:39;20.10;99.90
8715;DHT22;4394;51.208;8.904;2022-08-19T02:12:28;20.10;99.90
8715;DHT22;4394;51.208;8.904;2022-08-19T02:15:19;20.00;99.90
8715;DHT22;4394;51.208;8.904;2022-08-19T02:18:08;20.00;99.90
8715;DHT22;4394;51.208;8.904;2022-08-19T02:20:57;20.00;99.90
8715;DHT22;4394;51.208;8.904;2022-08-19T02:23:46;20.00;99.90
8715;DHT22;4394;51.208;8.904;2022-08-19T02:26:34;20.00;99.90
8715;DHT22;4394;51.208;8.904;2022-08-19T02:29:22;19.90;99.90
8715;DHT22;4394;51.208;8.904;2022-08-19T02:32:11;19.90;99.90
8715;DHT22;4394;51.208;8.904;2022-08-19T02:35:00;19.90;99.90
8715;DHT22;4394;51.208;8.904;2022-08-19T02:37:58;19.90;99.90
8715;DHT22;4394;51.208;8.904;2022-08-19T02:41:07;19.90;99.90
8715;DHT22;4394;51.208;8.904;2022-08-19T02:44:00;19.80;99.90
8715;DHT22;4394;51.208;8.904;2022-08-19T02:47:12;19.90;99.90
8715;DHT22;4394;51.208;8.904;2022-08-19T02:50:02;19.90;99.90
8715;DHT22;4394;51.208;8.904;2022-08-19T02:52:50;19.90;99.90
8715;DHT22;4394;51.208;8.904;2022-08-19T02:55:43;19.90;99.90
8715;DHT22;4394;51.208;8.904;2022-08-19T02:58:32;19.90;99.90
8715;DHT22;4394;51.208;8.904;2022-08-19T03:01:22;19.90;99.90
8715;DHT22;4394;51.208;8.904;2022-08-19T03:04:14;19.90;99.90
8715;DHT22;4394;51.208;8.904;2022-08-19T03:07:03;19.80;99.90
8715;DHT22;4394;51.208;8.904;2022-08-19T03:09:57;19.80;99.90
8715;DHT22;4394;51.208;8.904;2022-08-19T03:12:45;19.80;99.90
8715;DHT22;4394;51.208;8.904;2022-08-19T03:15:33;19.70;99.90
8715;DHT22;4394;51.208;8.904;2022-08-19T03:18:21;19.70;99.90
8715;DHT22;4394;51.208;8.904;2022-08-19T03:21:15;19.70;99.90
8715;DHT22;4394;51.208;8.904;2022-08-19T03:24:06;19.70;99.90
8715;DHT22;4394;51.208;8.904;2022-08-19T03:26:55;19.70;99.90
8715;DHT22;4394;51.208;8.904;2022-08-19T03:29:44;19.70;99.90
8715;DHT22;4394;51.208;8.904;2022-08-19T03:32:32;19.70;99.90
8715;DHT22;4394;51.208;8.904;2022-08-19T03:35:26;19.70;99.90
8715;DHT22;4394;51.208;8.904;2022-08-19T03:38:16;19.60;99.90
8715;DHT22;4394;51.208;8.904;2022-08-19T03:41:05;19.60;99.90
8715;DHT22;4394;51.208;8.904;2022-08-19T03:43:55;19.50;99.90
8715;DHT22;4394;51.208;8.904;2022-08-19T03:46:44;19.60;99.90
8715;DHT22;4394;51.208;8.904;2022-08-19T03:49:33;19.60;99.90
8715;DHT22;4394;51.208;8.904;2022-08-19T03:52:22;19.60;99.90
8715;DHT22;4394;51.208;8.904;2022-08-19T03:55:12;19.50;99.90
8715;DHT22;4394;51.208;8.904;2022-08-19T03:58:00;19.50;99.90
8715;DHT22;4394;51.208;8.904;2022-08-19T04:00:48;19.50;99.90
8715;DHT22;4394;51.208;8.904;2022-08-19T04:03:37;19.40;99.90
8715;DHT22;4394;51.208;8.904;2022-08-19T04:06:28;19.40;99.90
8715;DHT22;4394;51.208;8.904;2022-08-19T04:09:18;19.40;99.90
8715;DHT22;4394;51.208;8.904;2022-08-19T04:12:09;19.40;99.90
8715;DHT22;4394;51.208;8.904;2022-08-19T04:14:57;19.50;99.90
8715;DHT22;4394;51.208;8.904;2022-08-19T04:17:46;19.30;99.90
8715;DHT22;4394;51.208;8.904;2022-08-19T04:20:39;19.30;99.90
8715;DHT22;4394;51.208;8.904;2022-08-19T04:23:28;19.30;99.90
8715;DHT22;4394;51.208;8.904;2022-08-19T04:26:20;19.30;99.90
8715;DHT22;4394;51.208;8.904;2022-08-19T04:29:12;19.30;99.90
8715;DHT22;4394;51.208;8.904;2022-08-19T04:32:01;19.30;99.90
8715;DHT22;4394;51.208;8.904;2022-08-19T04:34:55;19.30;99.90
8715;DHT22;4394;51.208;8.904;2022-08-19T04:38:03;19.40;99.90
8715;DHT22;4394;51.208;8.904;2022-08-19T04:40:51;19.30;99.90
8715;DHT22;4394;51.208;8.904;2022-08-19T04:43:57;19.30;99.90
8715;DHT22;4394;51.208;8.904;2022-08-19T04:46:52;19.30;99.90
8715;DHT22;4394;51.208;8.904;2022-08-19T04:49:40;19.30;99.90
8715;DHT22;4394;51.208;8.904;2022-08-19T04:52:29;19.20;99.90
8715;DHT22;4394;51.208;8.904;2022-08-19T04:55:18;19.10;99.90
8715;DHT22;4394;51.208;8.904;2022-08-19T04:58:07;19.10;99.90
8715;DHT22;4394;51.208;8.904;2022-08-19T05:00:55;19.10;99.90
8715;DHT22;4394;51.208;8.904;2022-08-19T05:03:46;19.00;99.90
8715;DHT22;4394;51.208;8.904;2022-08-19T05:06:35;18.90;99.90
8715;DHT22;4394;51.208;8.904;2022-08-19T05:09:23;18.90;99.90
8715;DHT22;4394;51.208;8.904;2022-08-19T05:12:14;18.80;99.90
8715;DHT22;4394;51.208;8.904;2022-08-19T05:15:05;18.90;99.90
8715;DHT22;4394;51.208;8.904;2022-08-19T05:17:55;18.80;99.90
8715;DHT22;4394;51.208;8.904;2022-08-19T05:21:07;18.80;99.90
8715;DHT22;4394;51.208;8.904;2022-08-19T05:24:12;18.90;99.90
8715;DHT22;4394;51.208;8.904;2022-08-19T05:27:01;18.90;99.90
8715;DHT22;4394;51.208;8.904;2022-08-19T05:29:52;18.90;99.90
8715;DHT22;4394;51.208;8.904;2022-08-19T05:32:40;18.90;99.90
8715;DHT22;4394;51.208;8.904;2022-08-19T05:35:29;18.90;99.90
8715;DHT22;4394;51.208;8.904;2022-08-19T05:38:22;18.90;99.90
8715;DHT22;4394;51.208;8.904;2022-08-19T05:41:12;19.00;99.90
8715;DHT22;4394;51.208;8.904;2022-08-19T05:44:03;19.00;99.90
8715;DHT22;4394;51.208;8.904;2022-08-19T05:46:53;19.00;99.90
8715;DHT22;4394;51.208;8.904;2022-08-19T05:49:42;19.00;99.90
8715;DHT22;4394;51.208;8.904;2022-08-19T05:52:30;19.00;99.90
8715;DHT22;4394;51.208;8.904;2022-08-19T05:55:20;19.00;99.90
8715;DHT22;4394;51.208;8.904;2022-08-19T05:58:09;19.00;99.90
8715;DHT22;4394;51.208;8.904;2022-08-19T06:00:58;19.00;99.90
8715;DHT22;4394;51.208;8.904;2022-08-19T06:03:51;19.00;99.90
8715;DHT22;4394;51.208;8.904;2022-08-19T06:06:39;19.00;99.90
8715;DHT22;4394;51.208;8.904;2022-08-19T06:09:28;19.00;99.90
8715;DHT22;4394;51.208;8.904;2022-08-19T06:12:18;19.10;99.90
8715;DHT22;4394;51.208;8.904;2022-08-19T06:15:09;19.10;99.90
8715;DHT22;4394;51.208;8.904;2022-08-19T06:17:58;19.10;99.90
8715;DHT22;4394;51.208;8.904;2022-08-19T06:20:47;19.10;99.90
8715;DHT22;4394;51.208;8.904;2022-08-19T06:23:42;19.10;99.90
8715;DHT22;4394;51.208;8.904;2022-08-19T06:26:30;19.20;99.90
8715;DHT22;4394;51.208;8.904;2022-08-19T06:29:21;19.20;99.90
8715;DHT22;4394;51.208;8.904;2022-08-19T06:32:10;19.20;99.90
8715;DHT22;4394;51.208;8.904;2022-08-19T06:34:58;19.30;99.90
8715;DHT22;4394;51.208;8.904;2022-08-19T06:37:47;19.40;99.90
8715;DHT22;4394;51.208;8.904;2022-08-19T06:40:35;19.50;99.90
8715;DHT22;4394;51.208;8.904;2022-08-19T06:43:25;19.50;99.90
8715;DHT22;4394;51.208;8.904;2022-08-19T06:46:17;19.60;99.90
8715;DHT22;4394;51.208;8.904;2022-08-19T06:49:07;19.70;99.90
8715;DHT22;4394;51.208;8.904;2022-08-19T06:51:57;19.80;99.90
8715;DHT22;4394;51.208;8.904;2022-08-19T06:54:47;19.90;99.90
8715;DHT22;4394;51.208;8.904;2022-08-19T06:57:42;20.00;99.90
8715;DHT22;4394;51.208;8.904;2022-08-19T07:00:33;20.20;99.90
8715;DHT22;4394;51.208;8.904;2022-08-19T07:03:22;20.30;99.90
8715;DHT22;4394;51.208;8.904;2022-08-19T07:06:14;20.40;99.90
8715;DHT22;4394;51.208;8.904;2022-08-19T07:09:24;20.50;99.90
8715;DHT22;4394;51.208;8.904;2022-08-19T07:12:13;20.50;99.90
8715;DHT22;4394;51.208;8.904;2022-08-19T07:15:03;20.60;99.90
8715;DHT22;4394;51.208;8.904;2022-08-19T07:17:52;20.70;99.90
8715;DHT22;4394;51.208;8.904;2022-08-19T07:20:42;20.90;99.90
8715;DHT22;4394;51.208;8.904;2022-08-19T07:23:31;21.00;99.90
8715;DHT22;4394;51.208;8.904;2022-08-19T07:26:23;21.00;99.90
8715;DHT22;4394;51.208;8.904;2022-08-19T07:29:13;21.00;99.90
8715;DHT22;4394;51.208;8.904;2022-08-19T07:32:05;21.10;99.90
8715;DHT22;4394;51.208;8.904;2022-08-19T07:34:59;21.20;99.90
8715;DHT22;4394;51.208;8.904;2022-08-19T07:37:51;21.20;99.90
8715;DHT22;4394;51.208;8.904;2022-08-19T07:40:40;21.20;99.90
8715;DHT22;4394;51.208;8.904;2022-08-19T07:43:28;21.20;99.90
8715;DHT22;4394;51.208;8.904;2022-08-19T07:46:21;21.20;99.90
8715;DHT22;4394;51.208;8.904;2022-08-19T07:49:10;21.20;99.90
8715;DHT22;4394;51.208;8.904;2022-08-19T07:52:07;21.30;99.90
8715;DHT22;4394;51.208;8.904;2022-08-19T07:54:57;21.40;99.90
8715;DHT22;4394;51.208;8.904;2022-08-19T07:57:46;21.50;99.90
8715;DHT22;4394;51.208;8.904;2022-08-19T08:00:35;21.50;99.90
8715;DHT22;4394;51.208;8.904;2022-08-19T08:03:23;21.50;99.90
8715;DHT22;4394;51.208;8.904;2022-08-19T08:06:32;21.50;99.90
8715;DHT22;4394;51.208;8.904;2022-08-19T08:09:39;21.60;99.90
8715;DHT22;4394;51.208;8.904;2022-08-19T08:12:31;21.70;99.90
8715;DHT22;4394;51.208;8.904;2022-08-19T08:15:21;21.70;99.90
8715;DHT22;4394;51.208;8.904;2022-08-19T08:18:11;21.80;99.90
8715;DHT22;4394;51.208;8.904;2022-08-19T08:21:00;21.90;99.90
8715;DHT22;4394;51.208;8.904;2022-08-19T08:23:48;22.00;99.90
8715;DHT22;4394;51.208;8.904;2022-08-19T08:26:42;22.00;99.90
8715;DHT22;4394;51.208;8.904;2022-08-19T08:29:39;22.10;99.90
8715;DHT22;4394;51.208;8.904;2022-08-19T08:32:28;22.20;99.90
8715;DHT22;4394;51.208;8.904;2022-08-19T08:35:20;22.10;99.90
8715;DHT22;4394;51.208;8.904;2022-08-19T08:38:09;22.10;99.90
8715;DHT22;4394;51.208;8.904;2022-08-19T08:41:02;22.20;99.90
8715;DHT22;4394;51.208;8.904;2022-08-19T08:43:55;22.30;99.90
8715;DHT22;4394;51.208;8.904;2022-08-19T08:46:48;22.30;99.90
8715;DHT22;4394;51.208;8.904;2022-08-19T08:49:43;22.30;99.90
8715;DHT22;4394;51.208;8.904;2022-08-19T08:52:41;22.20;99.90
8715;DHT22;4394;51.208;8.904;2022-08-19T08:55:31;22.20;99.90
8715;DHT22;4394;51.208;8.904;2022-08-19T08:58:27;22.20;99.90
8715;DHT22;4394;51.208;8.904;2022-08-19T09:01:17;22.20;99.90
8715;DHT22;4394;51.208;8.904;2022-08-19T09:04:07;22.30;99.90
8715;DHT22;4394;51.208;8.904;2022-08-19T09:07:12;22.40;99.90
8715;DHT22;4394;51.208;8.904;2022-08-19T09:10:28;22.50;99.90
8715;DHT22;4394;51.208;8.904;2022-08-19T09:13:42;22.60;99.90
8715;DHT22;4394;51.208;8.904;2022-08-19T09:16:44;22.60;99.90
8715;DHT22;4394;51.208;8.904;2022-08-19T09:19:36;22.70;99.90
8715;DHT22;4394;51.208;8.904;2022-08-19T09:22:35;22.70;99.90
8715;DHT22;4394;51.208;8.904;2022-08-19T09:25:24;22.70;99.90
8715;DHT22;4394;51.208;8.904;2022-08-19T09:28:15;22.70;99.90
8715;DHT22;4394;51.208;8.904;2022-08-19T09:31:13;22.80;99.90
8715;DHT22;4394;51.208;8.904;2022-08-19T09:34:02;22.90;99.90
8715;DHT22;4394;51.208;8.904;2022-08-19T09:36:53;23.00;99.90
8715;DHT22;4394;51.208;8.904;2022-08-19T09:39:44;23.10;99.90
8715;DHT22;4394;51.208;8.904;2022-08-19T09:42:33;23.30;99.90
8715;DHT22;4394;51.208;8.904;2022-08-19T09:45:22;23.50;99.90
8715;DHT22;4394;51.208;8.904;2022-08-19T09:48:11;23.50;99.90
8715;DHT22;4394;51.208;8.904;2022-08-19T09:51:10;23.70;99.90
8715;DHT22;4394;51.208;8.904;2022-08-19T09:54:04;23.90;99.90
8715;DHT22;4394;51.208;8.904;2022-08-19T09:56:58;24.20;99.90
8715;DHT22;4394;51.208;8.904;2022-08-19T09:59:53;24.40;99.90
8715;DHT22;4394;51.208;8.904;2022-08-19T10:02:41;24.40;99.90
8715;DHT22;4394;51.208;8.904;2022-08-19T10:05:31;24.50;99.90
8715;DHT22;4394;51.208;8.904;2022-08-19T10:08:41;24.50;99.90
8715;DHT22;4394;51.208;8.904;2022-08-19T10:11:40;24.40;99.90
8715;DHT22;4394;51.208;8.904;2022-08-19T10:14:39;24.40;99.90
8715;DHT22;4394;51.208;8.904;2022-08-19T10:17:27;24.40;99.90
8715;DHT22;4394;51.208;8.904;2022-08-19T10:20:19;24.30;99.90
8715;DHT22;4394;51.208;8.904;2022-08-19T10:23:08;24.30;99.90
8715;DHT22;4394;51.208;8.904;2022-08-19T10:26:00;24.50;99.90
8715;DHT22;4394;51.208;8.904;2022-08-19T10:28:49;24.60;99.90
8715;DHT22;4394;51.208;8.904;2022-08-19T10:31:40;24.70;99.90
8715;DHT22;4394;51.208;8.904;2022-08-19T10:34:47;24.80;99.90
8715;DHT22;4394;51.208;8.904;2022-08-19T10:37:43;24.90;99.90
8715;DHT22;4394;51.208;8.904;2022-08-19T10:40:45;25.20;99.90
8715;DHT22;4394;51.208;8.904;2022-08-19T10:43:34;25.50;99.90
8715;DHT22;4394;51.208;8.904;2022-08-19T10:46:27;25.70;99.90
8715;DHT22;4394;51.208;8.904;2022-08-19T10:49:19;25.50;99.90
8715;DHT22;4394;51.208;8.904;2022-08-19T10:52:08;24.90;99.90
8715;DHT22;4394;51.208;8.904;2022-08-19T10:55:20;24.70;99.90
8715;DHT22;4394;51.208;8.904;2022-08-19T10:58:26;24.60;99.90
8715;DHT22;4394;51.208;8.904;2022-08-19T11:01:14;24.70;99.90
8715;DHT22;4394;51.208;8.904;2022-08-19T11:04:06;24.80;99.90
8715;DHT22;4394;51.208;8.904;2022-08-19T11:07:00;25.00;99.90
8715;DHT22;4394;51.208;8.904;2022-08-19T11:09:49;25.30;99.90
8715;DHT22;4394;51.208;8.904;2022-08-19T11:12:37;25.60;99.90
8715;DHT22;4394;51.208;8.904;2022-08-19T11:15:26;25.80;99.90
8715;DHT22;4394;51.208;8.904;2022-08-19T11:18:17;25.90;99.90
8715;DHT22;4394;51.208;8.904;2022-08-19T11:21:08;26.10;99.90
8715;DHT22;4394;51.208;8.904;2022-08-19T11:24:00;26.00;99.90
8715;DHT22;4394;51.208;8.904;2022-08-19T11:26:51;26.00;99.90
8715;DHT22;4394;51.208;8.904;2022-08-19T11:29:44;26.20;99.90
8715;DHT22;4394;51.208;8.904;2022-08-19T11:32:33;26.30;99.90
8715;DHT22;4394;51.208;8.904;2022-08-19T11:35:23;26.30;99.90
8715;DHT22;4394;51.208;8.904;2022-08-19T11:38:12;26.20;99.90
8715;DHT22;4394;51.208;8.904;2022-08-19T11:41:03;26.10;99.90
8715;DHT22;4394;51.208;8.904;2022-08-19T11:43:52;25.90;99.90
8715;DHT22;4394;51.208;8.904;2022-08-19T11:46:43;25.80;99.90
8715;DHT22;4394;51.208;8.904;2022-08-19T11:49:33;25.70;99.90
8715;DHT22;4394;51.208;8.904;2022-08-19T11:52:23;25.60;99.90
8715;DHT22;4394;51.208;8.904;2022-08-19T11:55:14;25.50;99.90
8715;DHT22;4394;51.208;8.904;2022-08-19T11:58:02;25.70;99.90
8715;DHT22;4394;51.208;8.904;2022-08-19T12:01:06;25.90;99.90
8715;DHT22;4394;51.208;8.904;2022-08-19T12:03:56;26.20;99.90
8715;DHT22;4394;51.208;8.904;2022-08-19T12:06:45;26.30;99.90
8715;DHT22;4394;51.208;8.904;2022-08-19T12:09:33;26.30;99.90
8715;DHT22;4394;51.208;8.904;2022-08-19T12:12:29;26.40;99.90
8715;DHT22;4394;51.208;8.904;2022-08-19T12:15:17;26.40;99.10
8715;DHT22;4394;51.208;8.904;2022-08-19T12:18:06;26.40;99.00
8715;DHT22;4394;51.208;8.904;2022-08-19T12:20:54;26.40;99.60
8715;DHT22;4394;51.208;8.904;2022-08-19T12:23:43;26.40;97.90
8715;DHT22;4394;51.208;8.904;2022-08-19T12:26:32;26.40;98.70
8715;DHT22;4394;51.208;8.904;2022-08-19T12:29:41;26.30;97.70
8715;DHT22;4394;51.208;8.904;2022-08-19T12:32:29;26.20;98.20
8715;DHT22;4394;51.208;8.904;2022-08-19T12:35:18;26.30;97.70
8715;DHT22;4394;51.208;8.904;2022-08-19T12:38:08;26.30;98.10
8715;DHT22;4394;51.208;8.904;2022-08-19T12:40:56;26.40;97.90
8715;DHT22;4394;51.208;8.904;2022-08-19T12:43:46;26.40;97.30
8715;DHT22;4394;51.208;8.904;2022-08-19T12:46:37;26.40;97.20
8715;DHT22;4394;51.208;8.904;2022-08-19T12:49:27;26.50;97.20
8715;DHT22;4394;51.208;8.904;2022-08-19T12:52:36;26.70;98.10
8715;DHT22;4394;51.208;8.904;2022-08-19T12:55:24;26.80;98.50
8715;DHT22;4394;51.208;8.904;2022-08-19T12:58:14;27.00;98.90
8715;DHT22;4394;51.208;8.904;2022-08-19T13:01:09;27.50;98.50
8715;DHT22;4394;51.208;8.904;2022-08-19T13:03:59;27.70;97.80
8715;DHT22;4394;51.208;8.904;2022-08-19T13:06:47;27.90;97.30
8715;DHT22;4394;51.208;8.904;2022-08-19T13:09:36;27.80;97.00
8715;DHT22;4394;51.208;8.904;2022-08-19T13:12:24;27.70;96.50
8715;DHT22;4394;51.208;8.904;2022-08-19T13:15:14;27.40;95.60
8715;DHT22;4394;51.208;8.904;2022-08-19T13:18:10;27.20;94.80
8715;DHT22;4394;51.208;8.904;2022-08-19T13:21:03;27.30;94.90
8715;DHT22;4394;51.208;8.904;2022-08-19T13:23:52;27.50;95.60
8715;DHT22;4394;51.208;8.904;2022-08-19T13:26:40;27.80;96.20
8715;DHT22;4394;51.208;8.904;2022-08-19T13:29:29;28.10;96.40
8715;DHT22;4394;51.208;8.904;2022-08-19T13:32:34;28.10;95.90
8715;DHT22;4394;51.208;8.904;2022-08-19T13:35:43;28.30;95.60
8715;DHT22;4394;51.208;8.904;2022-08-19T13:38:33;28.30;94.50
8715;DHT22;4394;51.208;8.904;2022-08-19T13:41:23;28.30;94.60
8715;DHT22;4394;51.208;8.904;2022-08-19T13:44:11;28.50;94.40
8715;DHT22;4394;51.208;8.904;2022-08-19T13:47:04;28.70;94.50
8715;DHT22;4394;51.208;8.904;2022-08-19T13:49:53;28.50;92.90
8715;DHT22;4394;51.208;8.904;2022-08-19T13:52:42;28.20;93.20
8715;DHT22;4394;51.208;8.904;2022-08-19T13:55:31;28.20;92.20
8715;DHT22;4394;51.208;8.904;2022-08-19T13:58:20;28.30;92.60
8715;DHT22;4394;51.208;8.904;2022-08-19T14:01:09;28.30;92.60
8715;DHT22;4394;51.208;8.904;2022-08-19T14:03:58;28.40;92.60
8715;DHT22;4394;51.208;8.904;2022-08-19T14:06:48;28.40;92.60
8715;DHT22;4394;51.208;8.904;2022-08-19T14:09:39;28.40;92.40
8715;DHT22;4394;51.208;8.904;2022-08-19T14:12:34;28.30;92.30
8715;DHT22;4394;51.208;8.904;2022-08-19T14:15:23;28.20;91.60
8715;DHT22;4394;51.208;8.904;2022-08-19T14:18:11;28.00;91.70
8715;DHT22;4394;51.208;8.904;2022-08-19T14:21:00;27.80;91.80
8715;DHT22;4394;51.208;8.904;2022-08-19T14:23:50;27.80;91.90
8715;DHT22;4394;51.208;8.904;2022-08-19T14:26:38;27.50;92.10
8715;DHT22;4394;51.208;8.904;2022-08-19T14:29:27;27.50;92.60
8715;DHT22;4394;51.208;8.904;2022-08-19T14:32:16;27.50;92.30
8715;DHT22;4394;51.208;8.904;2022-08-19T14:35:06;27.40;93.10
8715;DHT22;4394;51.208;8.904;2022-08-19T14:37:55;27.60;92.80
8715;DHT22;4394;51.208;8.904;2022-08-19T14:40:45;28.10;93.00
8715;DHT22;4394;51.208;8.904;2022-08-19T14:43:34;28.60;93.30
8715;DHT22;4394;51.208;8.904;2022-08-19T14:46:25;28.60;91.70
8715;DHT22;4394;51.208;8.904;2022-08-19T14:49:15;28.20;90.90
8715;DHT22;4394;51.208;8.904;2022-08-19T14:52:05;28.20;91.10
8715;DHT22;4394;51.208;8.904;2022-08-19T14:54:53;28.40;91.90
8715;DHT22;4394;51.208;8.904;2022-08-19T14:57:46;28.30;90.80
8715;DHT22;4394;51.208;8.904;2022-08-19T15:00:34;28.10;90.60
8715;DHT22;4394;51.208;8.904;2022-08-19T15:03:24;28.30;91.30
8715;DHT22;4394;51.208;8.904;2022-08-19T15:06:13;28.60;90.00
8715;DHT22;4394;51.208;8.904;2022-08-19T15:09:05;28.60;89.20
8715;DHT22;4394;51.208;8.904;2022-08-19T15:12:07;28.60;88.30
8715;DHT22;4394;51.208;8.904;2022-08-19T15:15:11;28.40;86.50
8715;DHT22;4394;51.208;8.904;2022-08-19T15:18:03;28.30;89.20
8715;DHT22;4394;51.208;8.904;2022-08-19T15:20:55;28.10;87.90
8715;DHT22;4394;51.208;8.904;2022-08-19T15:23:48;28.10;90.10
8715;DHT22;4394;51.208;8.904;2022-08-19T15:26:40;28.30;88.80
8715;DHT22;4394;51.208;8.904;2022-08-19T15:29:30;28.20;86.60
8715;DHT22;4394;51.208;8.904;2022-08-19T15:32:25;28.00;86.70
8715;DHT22;4394;51.208;8.904;2022-08-19T15:35:19;27.90;87.30
8715;DHT22;4394;51.208;8.904;2022-08-19T15:38:13;27.60;87.80
8715;DHT22;4394;51.208;8.904;2022-08-19T15:41:04;27.40;88.20
8715;DHT22;4394;51.208;8.904;2022-08-19T15:44:17;27.20;89.40
8715;DHT22;4394;51.208;8.904;2022-08-19T15:47:17;27.20;90.20
8715;DHT22;4394;51.208;8.904;2022-08-19T15:50:13;27.30;90.90
8715;DHT22;4394;51.208;8.904;2022-08-19T15:53:06;27.50;90.60
8715;DHT22;4394;51.208;8.904;2022-08-19T15:56:08;27.60;90.60
8715;DHT22;4394;51.208;8.904;2022-08-19T15:58:59;27.80;90.40
8715;DHT22;4394;51.208;8.904;2022-08-19T16:02:14;27.90;90.50
8715;DHT22;4394;51.208;8.904;2022-08-19T16:05:22;28.10;89.90
8715;DHT22;4394;51.208;8.904;2022-08-19T16:08:29;27.90;87.10
8715;DHT22;4394;51.208;8.904;2022-08-19T16:11:41;27.90;90.20
8715;DHT22;4394;51.208;8.904;2022-08-19T16:14:34;28.00;90.10
8715;DHT22;4394;51.208;8.904;2022-08-19T16:17:35;28.00;90.40
8715;DHT22;4394;51.208;8.904;2022-08-19T16:20:26;28.10;90.60
8715;DHT22;4394;51.208;8.904;2022-08-19T16:23:34;28.20;90.10
8715;DHT22;4394;51.208;8.904;2022-08-19T16:26:32;28.20;89.50
8715;DHT22;4394;51.208;8.904;2022-08-19T16:29:43;28.10;88.70
8715;DHT22;4394;51.208;8.904;2022-08-19T16:32:34;28.00;88.30
8715;DHT22;4394;51.208;8.904;2022-08-19T16:35:23;27.80;88.90
8715;DHT22;4394;51.208;8.904;2022-08-19T16:38:15;27.60;89.90
8715;DHT22;4394;51.208;8.904;2022-08-19T16:41:21;27.50;90.10
8715;DHT22;4394;51.208;8.904;2022-08-19T16:44:14;27.50;89.10
8715;DHT22;4394;51.208;8.904;2022-08-19T16:47:10;27.50;90.50
8715;DHT22;4394;51.208;8.904;2022-08-19T16:50:00;27.50;89.60
8715;DHT22;4394;51.208;8.904;2022-08-19T16:52:53;27.30;89.40
8715;DHT22;4394;51.208;8.904;2022-08-19T16:55:49;27.20;89.70
8715;DHT22;4394;51.208;8.904;2022-08-19T16:58:47;27.10;89.50
8715;DHT22;4394;51.208;8.904;2022-08-19T17:01:39;26.90;90.10
8715;DHT22;4394;51.208;8.904;2022-08-19T17:04:36;26.80;90.70
8715;DHT22;4394;51.208;8.904;2022-08-19T17:07:25;26.80;91.10
8715;DHT22;4394;51.208;8.904;2022-08-19T17:10:19;26.80;91.50
8715;DHT22;4394;51.208;8.904;2022-08-19T17:13:12;26.80;91.80
8715;DHT22;4394;51.208;8.904;2022-08-19T17:16:04;26.80;92.10
8715;DHT22;4394;51.208;8.904;2022-08-19T17:18:59;26.90;92.00
8715;DHT22;4394;51.208;8.904;2022-08-19T17:21:54;26.80;92.20
8715;DHT22;4394;51.208;8.904;2022-08-19T17:24:57;26.70;92.20
8715;DHT22;4394;51.208;8.904;2022-08-19T17:27:49;26.60;92.20
8715;DHT22;4394;51.208;8.904;2022-08-19T17:30:42;26.70;92.70
8715;DHT22;4394;51.208;8.904;2022-08-19T17:33:37;26.60;92.50
8715;DHT22;4394;51.208;8.904;2022-08-19T17:36:29;26.60;92.80
8715;DHT22;4394;51.208;8.904;2022-08-19T17:39:25;26.60;92.70
8715;DHT22;4394;51.208;8.904;2022-08-19T17:42:15;26.60;92.70
8715;DHT22;4394;51.208;8.904;2022-08-19T17:45:16;26.60;92.90
8715;DHT22;4394;51.208;8.904;2022-08-19T17:48:09;26.50;93.00
8715;DHT22;4394;51.208;8.904;2022-08-19T17:51:13;26.50;93.30
8715;DHT22;4394;51.208;8.904;2022-08-19T17:54:12;26.50;93.30
8715;DHT22;4394;51.208;8.904;2022-08-19T17:57:03;26.50;93.40
8715;DHT22;4394;51.208;8.904;2022-08-19T17:59:52;26.50;93.40
8715;DHT22;4394;51.208;8.904;2022-08-19T18:02:59;26.50;93.50
8715;DHT22;4394;51.208;8.904;2022-08-19T18:05:55;26.50;93.60
8715;DHT22;4394;51.208;8.904;2022-08-19T18:08:50;26.40;93.60
8715;DHT22;4394;51.208;8.904;2022-08-19T18:11:54;26.30;93.70
8715;DHT22;4394;51.208;8.904;2022-08-19T18:14:51;26.20;93.80
8715;DHT22;4394;51.208;8.904;2022-08-19T18:17:43;26.10;94.20
8715;DHT22;4394;51.208;8.904;2022-08-19T18:20:36;26.00;94.40
8715;DHT22;4394;51.208;8.904;2022-08-19T18:23:28;25.80;94.20
8715;DHT22;4394;51.208;8.904;2022-08-19T18:26:32;25.60;94.40
8715;DHT22;4394;51.208;8.904;2022-08-19T18:29:26;25.50;94.60
8715;DHT22;4394;51.208;8.904;2022-08-19T18:32:26;25.40;94.90
8715;DHT22;4394;51.208;8.904;2022-08-19T18:35:23;25.30;94.60
8715;DHT22;4394;51.208;8.904;2022-08-19T18:38:20;25.20;94.60
8715;DHT22;4394;51.208;8.904;2022-08-19T18:41:33;25.20;94.60
8715;DHT22;4394;51.208;8.904;2022-08-19T18:44:41;25.00;94.60
8715;DHT22;4394;51.208;8.904;2022-08-19T18:47:49;24.90;95.10